sensor_id;sensor_type;location;lat;lon;timestamp;temperature;humidity
77052;SHT30;65980;44.898;8.602;2023-03-01T00:01:24;4.75;72.93
77052;SHT30;65980;44.898;8.602;2023-03-01T00:04:29;4.66;73.87
77052;SHT30;65980;44.898;8.602;2023-03-01T00:07:33;4.83;73.41
77052;SHT30;65980;44.898;8.602;2023-03-01T00:10:37;4.75;73.12
77052;SHT30;65980;44.898;8.602;2023-03-01T00:13:41;4.58;74.00
77052;SHT30;65980;44.898;8.602;2023-03-01T00:16:45;4.64;74.77
77052;SHT30;65980;44.898;8.602;2023-03-01T00:19:49;4.49;74.53
77052;SHT30;65980;44.898;8.602;2023-03-01T00:22:53;4.55;74.37
77052;SHT30;65980;44.898;8.602;2023-03-01T00:25:57;4.79;74.34
77052;SHT30;65980;44.898;8.602;2023-03-01T00:29:01;4.75;73.66
77052;SHT30;65980;44.898;8.602;2023-03-01T00:32:05;4.64;74.43
77052;SHT30;65980;44.898;8.602;2023-03-01T00:35:10;4.52;74.68
77052;SHT30;65980;44.898;8.602;2023-03-01T00:38:14;4.58;75.19
77052;SHT30;65980;44.898;8.602;2023-03-01T00:41:19;4.82;73.26
77052;SHT30;65980;44.898;8.602;2023-03-01T00:44:23;4.92;73.39
77052;SHT30;65980;44.898;8.602;2023-03-01T00:47:28;4.89;73.19
77052;SHT30;65980;44.898;8.602;2023-03-01T00:50:32;4.66;74.17
77052;SHT30;65980;44.898;8.602;2023-03-01T00:53:36;4.76;74.19
77052;SHT30;65980;44.898;8.602;2023-03-01T00:56:40;5.06;73.01
77052;SHT30;65980;44.898;8.602;2023-03-01T00:59:44;5.14;72.48
77052;SHT30;65980;44.898;8.602;2023-03-01T01:02:48;4.72;74.81
77052;SHT30;65980;44.898;8.602;2023-03-01T01:05:55;4.86;74.72
77052;SHT30;65980;44.898;8.602;2023-03-01T01:08:59;4.89;74.36
77052;SHT30;65980;44.898;8.602;2023-03-01T01:12:03;4.58;75.42
77052;SHT30;65980;44.898;8.602;2023-03-01T01:15:08;4.27;77.22
77052;SHT30;65980;44.898;8.602;2023-03-01T01:18:13;3.96;78.13
77052;SHT30;65980;44.898;8.602;2023-03-01T01:21:18;3.89;78.74
77052;SHT30;65980;44.898;8.602;2023-03-01T01:24:23;3.76;79.30
77052;SHT30;65980;44.898;8.602;2023-03-01T01:27:29;3.71;79.71
77052;SHT30;65980;44.898;8.602;2023-03-01T01:30:35;3.68;80.35
77052;SHT30;65980;44.898;8.602;2023-03-01T01:33:40;3.61;80.46
77052;SHT30;65980;44.898;8.602;2023-03-01T01:36:47;3.67;80.43
77052;SHT30;65980;44.898;8.602;2023-03-01T01:39:52;3.67;80.28
77052;SHT30;65980;44.898;8.602;2023-03-01T01:42:56;3.59;80.79
77052;SHT30;65980;44.898;8.602;2023-03-01T01:46:46;3.59;80.96
77052;SHT30;65980;44.898;8.602;2023-03-01T01:49:26;3.61;81.03
77052;SHT30;65980;44.898;8.602;2023-03-01T01:52:31;3.65;80.66
77052;SHT30;65980;44.898;8.602;2023-03-01T01:55:39;3.68;80.85
77052;SHT30;65980;44.898;8.602;2023-03-01T01:58:45;3.74;80.39
77052;SHT30;65980;44.898;8.602;2023-03-01T02:01:51;3.78;80.57
77052;SHT30;65980;44.898;8.602;2023-03-01T02:05:00;3.76;80.57
77052;SHT30;65980;44.898;8.602;2023-03-01T02:08:07;3.82;80.15
77052;SHT30;65980;44.898;8.602;2023-03-01T02:11:12;3.78;80.17
77052;SHT30;65980;44.898;8.602;2023-03-01T02:14:18;3.74;80.73
77052;SHT30;65980;44.898;8.602;2023-03-01T02:17:23;3.64;81.01
77052;SHT30;65980;44.898;8.602;2023-03-01T02:20:31;3.58;81.10
77052;SHT30;65980;44.898;8.602;2023-03-01T02:23:37;3.51;81.90
77052;SHT30;65980;44.898;8.602;2023-03-01T02:26:51;3.45;81.93
77052;SHT30;65980;44.898;8.602;2023-03-01T02:29:57;3.41;82.16
77052;SHT30;65980;44.898;8.602;2023-03-01T02:33:03;3.42;82.20
77052;SHT30;65980;44.898;8.602;2023-03-01T02:36:09;3.38;82.40
77052;SHT30;65980;44.898;8.602;2023-03-01T02:39:17;3.38;82.51
77052;SHT30;65980;44.898;8.602;2023-03-01T02:42:23;3.45;81.97
77052;SHT30;65980;44.898;8.602;2023-03-01T02:45:30;3.65;81.66
77052;SHT30;65980;44.898;8.602;2023-03-01T02:48:39;3.72;80.55
77052;SHT30;65980;44.898;8.602;2023-03-01T02:54:57;3.42;81.72
77052;SHT30;65980;44.898;8.602;2023-03-01T02:58:02;3.34;82.06
77052;SHT30;65980;44.898;8.602;2023-03-01T03:01:07;3.24;82.58
77052;SHT30;65980;44.898;8.602;2023-03-01T03:04:15;3.17;82.67
77052;SHT30;65980;44.898;8.602;2023-03-01T03:07:21;3.24;82.50
77052;SHT30;65980;44.898;8.602;2023-03-01T03:10:27;3.16;82.74
77052;SHT30;65980;44.898;8.602;2023-03-01T03:13:30;3.19;82.78
77052;SHT30;65980;44.898;8.602;2023-03-01T03:16:35;3.19;82.79
77052;SHT30;65980;44.898;8.602;2023-03-01T03:19:40;3.17;82.85
77052;SHT30;65980;44.898;8.602;2023-03-01T03:22:48;3.17;83.09
77052;SHT30;65980;44.898;8.602;2023-03-01T03:25:52;3.12;83.00
77052;SHT30;65980;44.898;8.602;2023-03-01T03:28:56;3.16;83.11
77052;SHT30;65980;44.898;8.602;2023-03-01T03:32:01;3.17;82.94
77052;SHT30;65980;44.898;8.602;2023-03-01T03:35:05;3.12;83.03
77052;SHT30;65980;44.898;8.602;2023-03-01T03:38:14;3.13;83.08
77052;SHT30;65980;44.898;8.602;2023-03-01T03:41:21;3.07;83.20
77052;SHT30;65980;44.898;8.602;2023-03-01T03:44:26;3.10;83.26
77052;SHT30;65980;44.898;8.602;2023-03-01T03:47:30;3.03;83.12
77052;SHT30;65980;44.898;8.602;2023-03-01T03:50:34;3.04;83.18
77052;SHT30;65980;44.898;8.602;2023-03-01T03:53:39;2.96;83.38
77052;SHT30;65980;44.898;8.602;2023-03-01T03:56:42;2.85;83.53
77052;SHT30;65980;44.898;8.602;2023-03-01T03:59:48;2.82;83.54
77052;SHT30;65980;44.898;8.602;2023-03-01T04:02:52;2.84;83.58
77052;SHT30;65980;44.898;8.602;2023-03-01T04:06:00;2.85;83.44
77052;SHT30;65980;44.898;8.602;2023-03-01T04:09:05;2.85;83.58
77052;SHT30;65980;44.898;8.602;2023-03-01T04:12:09;2.89;83.57
77052;SHT30;65980;44.898;8.602;2023-03-01T04:15:14;3.00;83.16
77052;SHT30;65980;44.898;8.602;2023-03-01T04:18:18;3.09;82.73
77052;SHT30;65980;44.898;8.602;2023-03-01T04:21:24;3.16;82.29
77052;SHT30;65980;44.898;8.602;2023-03-01T04:24:28;3.21;82.12
77052;SHT30;65980;44.898;8.602;2023-03-01T04:27:33;3.26;81.77
77052;SHT30;65980;44.898;8.602;2023-03-01T04:30:37;3.21;82.18
77052;SHT30;65980;44.898;8.602;2023-03-01T04:33:42;3.28;81.70
77052;SHT30;65980;44.898;8.602;2023-03-01T04:36:47;3.30;81.88
77052;SHT30;65980;44.898;8.602;2023-03-01T04:39:51;3.44;80.97
77052;SHT30;65980;44.898;8.602;2023-03-01T04:42:55;3.41;81.34
77052;SHT30;65980;44.898;8.602;2023-03-01T04:46:06;3.38;80.87
77052;SHT30;65980;44.898;8.602;2023-03-01T04:49:13;3.44;80.95
77052;SHT30;65980;44.898;8.602;2023-03-01T04:52:18;3.57;80.59
77052;SHT30;65980;44.898;8.602;2023-03-01T04:55:24;3.58;80.18
77052;SHT30;65980;44.898;8.602;2023-03-01T04:58:29;3.51;80.61
77052;SHT30;65980;44.898;8.602;2023-03-01T05:01:34;3.55;80.73
77052;SHT30;65980;44.898;8.602;2023-03-01T05:04:38;3.50;80.69
77052;SHT30;65980;44.898;8.602;2023-03-01T05:07:43;3.59;80.35
77052;SHT30;65980;44.898;8.602;2023-03-01T05:10:51;3.55;80.59
77052;SHT30;65980;44.898;8.602;2023-03-01T05:13:55;3.57;80.53
77052;SHT30;65980;44.898;8.602;2023-03-01T05:16:59;3.54;80.62
77052;SHT30;65980;44.898;8.602;2023-03-01T05:20:08;3.57;80.67
77052;SHT30;65980;44.898;8.602;2023-03-01T05:23:12;3.62;80.03
77052;SHT30;65980;44.898;8.602;2023-03-01T05:26:17;3.65;80.19
77052;SHT30;65980;44.898;8.602;2023-03-01T05:29:22;3.68;79.94
77052;SHT30;65980;44.898;8.602;2023-03-01T05:32:32;3.64;80.10
77052;SHT30;65980;44.898;8.602;2023-03-01T05:35:35;3.72;80.17
77052;SHT30;65980;44.898;8.602;2023-03-01T05:38:40;3.79;79.96
77052;SHT30;65980;44.898;8.602;2023-03-01T05:41:44;3.72;80.20
77052;SHT30;65980;44.898;8.602;2023-03-01T05:44:47;3.68;80.37
77052;SHT30;65980;44.898;8.602;2023-03-01T05:47:55;3.62;80.72
77052;SHT30;65980;44.898;8.602;2023-03-01T05:50:59;3.58;80.96
77052;SHT30;65980;44.898;8.602;2023-03-01T05:54:04;3.58;81.02
77052;SHT30;65980;44.898;8.602;2023-03-01T05:57:11;3.62;81.09
77052;SHT30;65980;44.898;8.602;2023-03-01T06:00:17;3.62;80.91
77052;SHT30;65980;44.898;8.602;2023-03-01T06:03:21;3.79;79.99
77052;SHT30;65980;44.898;8.602;2023-03-01T06:06:26;3.82;79.54
77052;SHT30;65980;44.898;8.602;2023-03-01T06:09:30;3.90;79.45
77052;SHT30;65980;44.898;8.602;2023-03-01T06:12:35;3.93;79.20
77052;SHT30;65980;44.898;8.602;2023-03-01T06:15:40;3.99;79.15
77052;SHT30;65980;44.898;8.602;2023-03-01T06:18:44;4.02;79.16
77052;SHT30;65980;44.898;8.602;2023-03-01T06:21:47;4.14;78.57
77052;SHT30;65980;44.898;8.602;2023-03-01T06:24:51;4.17;78.47
77052;SHT30;65980;44.898;8.602;2023-03-01T06:27:56;4.20;77.76
77052;SHT30;65980;44.898;8.602;2023-03-01T06:31:01;4.29;77.57
77052;SHT30;65980;44.898;8.602;2023-03-01T06:34:06;4.40;77.15
77052;SHT30;65980;44.898;8.602;2023-03-01T06:37:09;4.71;76.59
77052;SHT30;65980;44.898;8.602;2023-03-01T06:40:16;4.58;75.92
77052;SHT30;65980;44.898;8.602;2023-03-01T06:43:20;4.54;76.66
77052;SHT30;65980;44.898;8.602;2023-03-01T06:46:29;4.29;77.34
77052;SHT30;65980;44.898;8.602;2023-03-01T06:49:42;4.36;77.57
77052;SHT30;65980;44.898;8.602;2023-03-01T06:52:48;4.40;76.96
77052;SHT30;65980;44.898;8.602;2023-03-01T06:55:56;4.44;76.71
77052;SHT30;65980;44.898;8.602;2023-03-01T06:59:07;4.55;76.55
77052;SHT30;65980;44.898;8.602;2023-03-01T07:02:16;4.51;76.76
77052;SHT30;65980;44.898;8.602;2023-03-01T07:09:40;4.45;77.22
77052;SHT30;65980;44.898;8.602;2023-03-01T07:12:53;4.38;77.44
77052;SHT30;65980;44.898;8.602;2023-03-01T07:15:58;4.37;77.70
77052;SHT30;65980;44.898;8.602;2023-03-01T07:19:02;4.48;77.92
77052;SHT30;65980;44.898;8.602;2023-03-01T07:22:10;4.57;77.06
77052;SHT30;65980;44.898;8.602;2023-03-01T07:25:27;4.61;77.02
77052;SHT30;65980;44.898;8.602;2023-03-01T07:28:31;4.68;76.91
77052;SHT30;65980;44.898;8.602;2023-03-01T07:32:05;4.76;76.40
77052;SHT30;65980;44.898;8.602;2023-03-01T07:38:30;4.97;74.95
77052;SHT30;65980;44.898;8.602;2023-03-01T07:41:44;4.97;75.17
77052;SHT30;65980;44.898;8.602;2023-03-01T07:44:53;4.92;75.61
77052;SHT30;65980;44.898;8.602;2023-03-01T07:48:02;4.97;75.63
77052;SHT30;65980;44.898;8.602;2023-03-01T07:51:10;5.03;75.14
77052;SHT30;65980;44.898;8.602;2023-03-01T07:54:34;4.93;75.38
77052;SHT30;65980;44.898;8.602;2023-03-01T08:04:45;5.07;75.16
77052;SHT30;65980;44.898;8.602;2023-03-01T08:07:53;5.03;74.61
77052;SHT30;65980;44.898;8.602;2023-03-01T08:11:01;5.07;75.54
77052;SHT30;65980;44.898;8.602;2023-03-01T08:14:08;5.10;75.00
77052;SHT30;65980;44.898;8.602;2023-03-01T08:17:22;5.13;75.41
77052;SHT30;65980;44.898;8.602;2023-03-01T08:20:37;5.26;74.06
77052;SHT30;65980;44.898;8.602;2023-03-01T08:23:55;5.23;74.29
77052;SHT30;65980;44.898;8.602;2023-03-01T08:26:59;5.35;74.01
77052;SHT30;65980;44.898;8.602;2023-03-01T08:30:06;5.27;74.03
77052;SHT30;65980;44.898;8.602;2023-03-01T08:33:11;5.28;73.69
77052;SHT30;65980;44.898;8.602;2023-03-01T08:36:18;5.35;73.56
77052;SHT30;65980;44.898;8.602;2023-03-01T08:39:29;5.32;73.90
77052;SHT30;65980;44.898;8.602;2023-03-01T08:42:33;5.41;74.10
77052;SHT30;65980;44.898;8.602;2023-03-01T08:45:37;5.34;73.61
77052;SHT30;65980;44.898;8.602;2023-03-01T08:48:42;5.60;72.67
77052;SHT30;65980;44.898;8.602;2023-03-01T08:51:46;5.72;71.81
77052;SHT30;65980;44.898;8.602;2023-03-01T08:54:51;5.76;72.79
77052;SHT30;65980;44.898;8.602;2023-03-01T08:57:56;5.83;71.40
77052;SHT30;65980;44.898;8.602;2023-03-01T09:01:07;5.75;71.82
77052;SHT30;65980;44.898;8.602;2023-03-01T09:04:13;5.93;72.46
77052;SHT30;65980;44.898;8.602;2023-03-01T09:07:18;5.85;70.75
77052;SHT30;65980;44.898;8.602;2023-03-01T09:10:22;6.11;70.64
77052;SHT30;65980;44.898;8.602;2023-03-01T09:13:29;6.11;71.16
77052;SHT30;65980;44.898;8.602;2023-03-01T09:16:34;6.17;70.67
77052;SHT30;65980;44.898;8.602;2023-03-01T09:19:39;6.06;71.36
77052;SHT30;65980;44.898;8.602;2023-03-01T09:22:43;5.93;71.30
77052;SHT30;65980;44.898;8.602;2023-03-01T09:25:47;5.96;70.53
77052;SHT30;65980;44.898;8.602;2023-03-01T09:28:52;6.07;70.42
77052;SHT30;65980;44.898;8.602;2023-03-01T09:31:57;5.99;70.66
77052;SHT30;65980;44.898;8.602;2023-03-01T09:35:00;5.97;70.53
77052;SHT30;65980;44.898;8.602;2023-03-01T09:38:08;5.87;70.28
77052;SHT30;65980;44.898;8.602;2023-03-01T09:47:36;6.25;69.47
77052;SHT30;65980;44.898;8.602;2023-03-01T09:50:41;6.20;69.09
77052;SHT30;65980;44.898;8.602;2023-03-01T09:53:48;6.20;69.74
77052;SHT30;65980;44.898;8.602;2023-03-01T09:57:05;6.14;69.48
77052;SHT30;65980;44.898;8.602;2023-03-01T10:03:34;6.03;68.83
77052;SHT30;65980;44.898;8.602;2023-03-01T10:06:42;6.18;68.24
77052;SHT30;65980;44.898;8.602;2023-03-01T10:09:48;6.32;67.43
77052;SHT30;65980;44.898;8.602;2023-03-01T10:12:52;6.61;67.42
77052;SHT30;65980;44.898;8.602;2023-03-01T10:16:00;6.87;67.29
77052;SHT30;65980;44.898;8.602;2023-03-01T10:19:24;7.10;65.91
77052;SHT30;65980;44.898;8.602;2023-03-01T10:22:34;7.24;66.12
77052;SHT30;65980;44.898;8.602;2023-03-01T10:29:06;6.73;67.59
77052;SHT30;65980;44.898;8.602;2023-03-01T10:32:13;6.59;68.13
77052;SHT30;65980;44.898;8.602;2023-03-01T10:35:18;6.79;67.23
77052;SHT30;65980;44.898;8.602;2023-03-01T10:38:22;6.89;67.13
77052;SHT30;65980;44.898;8.602;2023-03-01T10:41:27;6.79;67.04
77052;SHT30;65980;44.898;8.602;2023-03-01T10:44:35;6.92;67.19
77052;SHT30;65980;44.898;8.602;2023-03-01T10:47:40;7.01;66.24
77052;SHT30;65980;44.898;8.602;2023-03-01T10:50:46;7.10;66.30
77052;SHT30;65980;44.898;8.602;2023-03-01T10:53:51;7.01;65.58
77052;SHT30;65980;44.898;8.602;2023-03-01T10:56:59;7.28;65.36
77052;SHT30;65980;44.898;8.602;2023-03-01T11:00:15;7.49;65.16
77052;SHT30;65980;44.898;8.602;2023-03-01T11:03:25;7.41;65.03
77052;SHT30;65980;44.898;8.602;2023-03-01T11:06:30;7.48;65.50
77052;SHT30;65980;44.898;8.602;2023-03-01T11:09:34;7.52;65.08
77052;SHT30;65980;44.898;8.602;2023-03-01T11:12:42;7.72;64.45
77052;SHT30;65980;44.898;8.602;2023-03-01T11:16:03;7.45;66.14
77052;SHT30;65980;44.898;8.602;2023-03-01T11:22:18;7.48;66.56
77052;SHT30;65980;44.898;8.602;2023-03-01T11:25:25;7.44;66.28
77052;SHT30;65980;44.898;8.602;2023-03-01T11:28:29;7.58;66.03
77052;SHT30;65980;44.898;8.602;2023-03-01T11:31:34;7.61;65.77
77052;SHT30;65980;44.898;8.602;2023-03-01T11:38:05;7.47;64.56
77052;SHT30;65980;44.898;8.602;2023-03-01T11:41:17;7.39;65.56
77052;SHT30;65980;44.898;8.602;2023-03-01T11:44:23;7.44;66.13
77052;SHT30;65980;44.898;8.602;2023-03-01T11:50:56;7.61;64.65
77052;SHT30;65980;44.898;8.602;2023-03-01T11:54:06;7.54;64.07
77052;SHT30;65980;44.898;8.602;2023-03-01T11:57:17;7.86;62.83
77052;SHT30;65980;44.898;8.602;2023-03-01T12:13:57;8.50;61.20
77052;SHT30;65980;44.898;8.602;2023-03-01T12:23:33;8.60;59.89
77052;SHT30;65980;44.898;8.602;2023-03-01T12:26:45;8.60;59.09
77052;SHT30;65980;44.898;8.602;2023-03-01T12:29:56;9.01;58.34
77052;SHT30;65980;44.898;8.602;2023-03-01T12:45:57;9.32;59.19
77052;SHT30;65980;44.898;8.602;2023-03-01T12:49:10;9.05;58.00
77052;SHT30;65980;44.898;8.602;2023-03-01T12:52:18;8.90;58.69
77052;SHT30;65980;44.898;8.602;2023-03-01T12:55:31;8.72;59.08
77052;SHT30;65980;44.898;8.602;2023-03-01T12:58:41;9.01;58.11
77052;SHT30;65980;44.898;8.602;2023-03-01T13:02:04;9.15;57.95
77052;SHT30;65980;44.898;8.602;2023-03-01T13:08:36;9.22;57.46
77052;SHT30;65980;44.898;8.602;2023-03-01T13:11:42;9.24;58.03
77052;SHT30;65980;44.898;8.602;2023-03-01T13:14:49;9.22;56.91
77052;SHT30;65980;44.898;8.602;2023-03-01T13:21:29;8.77;57.96
77052;SHT30;65980;44.898;8.602;2023-03-01T13:27:37;8.75;59.12
77052;SHT30;65980;44.898;8.602;2023-03-01T13:30:41;8.75;59.33
77052;SHT30;65980;44.898;8.602;2023-03-01T13:33:46;8.91;59.14
77052;SHT30;65980;44.898;8.602;2023-03-01T13:36:50;8.67;60.02
77052;SHT30;65980;44.898;8.602;2023-03-01T13:39:56;8.70;60.41
77052;SHT30;65980;44.898;8.602;2023-03-01T13:43:22;8.76;55.82
77052;SHT30;65980;44.898;8.602;2023-03-01T13:46:25;8.66;57.68
77052;SHT30;65980;44.898;8.602;2023-03-01T13:49:31;8.58;58.45
77052;SHT30;65980;44.898;8.602;2023-03-01T13:52:42;8.41;59.95
77052;SHT30;65980;44.898;8.602;2023-03-01T13:55:48;8.58;60.14
77052;SHT30;65980;44.898;8.602;2023-03-01T13:59:02;8.34;61.09
77052;SHT30;65980;44.898;8.602;2023-03-01T14:02:16;8.67;60.59
77052;SHT30;65980;44.898;8.602;2023-03-01T14:05:20;8.60;61.00
77052;SHT30;65980;44.898;8.602;2023-03-01T14:08:25;8.84;60.78
77052;SHT30;65980;44.898;8.602;2023-03-01T14:11:35;8.86;60.62
77052;SHT30;65980;44.898;8.602;2023-03-01T14:15:04;8.67;60.89
77052;SHT30;65980;44.898;8.602;2023-03-01T14:18:15;8.37;62.71
77052;SHT30;65980;44.898;8.602;2023-03-01T14:21:23;8.73;61.61
77052;SHT30;65980;44.898;8.602;2023-03-01T14:24:29;8.77;61.93
77052;SHT30;65980;44.898;8.602;2023-03-01T14:27:36;8.83;61.53
77052;SHT30;65980;44.898;8.602;2023-03-01T14:30:47;8.86;62.08
77052;SHT30;65980;44.898;8.602;2023-03-01T14:33:55;8.52;63.94
77052;SHT30;65980;44.898;8.602;2023-03-01T14:37:11;8.37;64.39
77052;SHT30;65980;44.898;8.602;2023-03-01T14:40:26;8.48;62.76
77052;SHT30;65980;44.898;8.602;2023-03-01T14:43:31;8.25;65.89
77052;SHT30;65980;44.898;8.602;2023-03-01T14:46:36;7.86;69.76
77052;SHT30;65980;44.898;8.602;2023-03-01T14:49:41;8.18;66.86
77052;SHT30;65980;44.898;8.602;2023-03-01T14:52:46;8.32;66.45
77052;SHT30;65980;44.898;8.602;2023-03-01T14:55:55;8.15;68.18
77052;SHT30;65980;44.898;8.602;2023-03-01T14:58:59;8.34;67.56
77052;SHT30;65980;44.898;8.602;2023-03-01T15:02:08;8.39;67.97
77052;SHT30;65980;44.898;8.602;2023-03-01T15:05:15;8.46;68.69
77052;SHT30;65980;44.898;8.602;2023-03-01T15:08:25;8.48;71.83
77052;SHT30;65980;44.898;8.602;2023-03-01T15:11:30;8.32;72.08
77052;SHT30;65980;44.898;8.602;2023-03-01T15:17:42;8.13;72.03
77052;SHT30;65980;44.898;8.602;2023-03-01T15:20:46;7.76;71.29
77052;SHT30;65980;44.898;8.602;2023-03-01T15:23:55;7.79;71.84
77052;SHT30;65980;44.898;8.602;2023-03-01T15:27:00;7.34;73.94
77052;SHT30;65980;44.898;8.602;2023-03-01T15:30:17;7.41;74.13
77052;SHT30;65980;44.898;8.602;2023-03-01T15:39:40;7.01;77.75
77052;SHT30;65980;44.898;8.602;2023-03-01T15:42:47;6.86;77.41
77052;SHT30;65980;44.898;8.602;2023-03-01T15:45:57;7.05;77.38
77052;SHT30;65980;44.898;8.602;2023-03-01T15:52:35;7.05;79.24
77052;SHT30;65980;44.898;8.602;2023-03-01T15:55:43;6.61;80.43
77052;SHT30;65980;44.898;8.602;2023-03-01T15:58:47;6.46;80.84
77052;SHT30;65980;44.898;8.602;2023-03-01T16:01:52;6.42;82.10
77052;SHT30;65980;44.898;8.602;2023-03-01T16:04:55;6.38;81.59
77052;SHT30;65980;44.898;8.602;2023-03-01T16:08:00;6.44;81.03
77052;SHT30;65980;44.898;8.602;2023-03-01T16:11:05;6.41;81.46
77052;SHT30;65980;44.898;8.602;2023-03-01T16:14:13;6.44;81.87
77052;SHT30;65980;44.898;8.602;2023-03-01T16:17:17;6.49;81.65
77052;SHT30;65980;44.898;8.602;2023-03-01T16:20:23;6.59;81.92
77052;SHT30;65980;44.898;8.602;2023-03-01T16:23:29;6.69;81.10
77052;SHT30;65980;44.898;8.602;2023-03-01T16:26:33;6.59;81.33
77052;SHT30;65980;44.898;8.602;2023-03-01T16:29:38;6.65;82.08
77052;SHT30;65980;44.898;8.602;2023-03-01T16:32:43;6.80;81.99
77052;SHT30;65980;44.898;8.602;2023-03-01T16:35:47;7.00;81.33
77052;SHT30;65980;44.898;8.602;2023-03-01T16:38:52;6.90;81.31
77052;SHT30;65980;44.898;8.602;2023-03-01T16:41:59;6.83;81.21
77052;SHT30;65980;44.898;8.602;2023-03-01T16:45:04;6.83;81.78
77052;SHT30;65980;44.898;8.602;2023-03-01T16:48:11;6.66;82.34
77052;SHT30;65980;44.898;8.602;2023-03-01T16:51:15;6.59;83.03
77052;SHT30;65980;44.898;8.602;2023-03-01T16:54:19;6.52;83.20
77052;SHT30;65980;44.898;8.602;2023-03-01T16:57:22;6.73;82.52
77052;SHT30;65980;44.898;8.602;2023-03-01T17:00:27;6.89;81.58
77052;SHT30;65980;44.898;8.602;2023-03-01T17:03:31;7.07;81.76
77052;SHT30;65980;44.898;8.602;2023-03-01T17:06:35;7.13;81.55
77052;SHT30;65980;44.898;8.602;2023-03-01T17:09:38;7.30;81.02
77052;SHT30;65980;44.898;8.602;2023-03-01T17:12:43;7.34;80.69
77052;SHT30;65980;44.898;8.602;2023-03-01T17:15:46;6.90;81.72
77052;SHT30;65980;44.898;8.602;2023-03-01T17:18:51;7.28;81.02
77052;SHT30;65980;44.898;8.602;2023-03-01T17:21:55;7.17;81.16
77052;SHT30;65980;44.898;8.602;2023-03-01T17:24:58;7.35;80.69
77052;SHT30;65980;44.898;8.602;2023-03-01T17:28:04;7.39;80.97
77052;SHT30;65980;44.898;8.602;2023-03-01T17:31:08;7.01;81.70
77052;SHT30;65980;44.898;8.602;2023-03-01T17:34:12;6.89;81.33
77052;SHT30;65980;44.898;8.602;2023-03-01T17:37:16;6.96;82.14
77052;SHT30;65980;44.898;8.602;2023-03-01T17:40:19;6.86;82.73
77052;SHT30;65980;44.898;8.602;2023-03-01T17:43:24;6.40;84.53
77052;SHT30;65980;44.898;8.602;2023-03-01T17:46:29;6.31;85.07
77052;SHT30;65980;44.898;8.602;2023-03-01T17:49:33;6.23;86.19
77052;SHT30;65980;44.898;8.602;2023-03-01T17:52:36;6.30;85.73
77052;SHT30;65980;44.898;8.602;2023-03-01T17:55:41;6.30;85.73
77052;SHT30;65980;44.898;8.602;2023-03-01T17:58:45;6.21;86.14
77052;SHT30;65980;44.898;8.602;2023-03-01T18:01:50;6.14;86.86
77052;SHT30;65980;44.898;8.602;2023-03-01T18:04:56;6.10;85.97
77052;SHT30;65980;44.898;8.602;2023-03-01T18:08:02;6.31;85.45
77052;SHT30;65980;44.898;8.602;2023-03-01T18:11:07;6.45;85.32
77052;SHT30;65980;44.898;8.602;2023-03-01T18:14:12;6.27;86.20
77052;SHT30;65980;44.898;8.602;2023-03-01T18:17:16;6.44;85.82
77052;SHT30;65980;44.898;8.602;2023-03-01T18:20:20;5.99;86.90
77052;SHT30;65980;44.898;8.602;2023-03-01T18:23:25;6.34;85.51
77052;SHT30;65980;44.898;8.602;2023-03-01T18:26:29;6.30;85.79
77052;SHT30;65980;44.898;8.602;2023-03-01T18:29:34;6.40;85.33
77052;SHT30;65980;44.898;8.602;2023-03-01T18:32:38;6.24;85.64
77052;SHT30;65980;44.898;8.602;2023-03-01T18:35:42;6.11;86.78
77052;SHT30;65980;44.898;8.602;2023-03-01T18:38:47;6.23;86.77
77052;SHT30;65980;44.898;8.602;2023-03-01T18:41:51;6.40;85.99
77052;SHT30;65980;44.898;8.602;2023-03-01T18:44:55;6.61;85.38
77052;SHT30;65980;44.898;8.602;2023-03-01T18:48:00;6.75;85.02
77052;SHT30;65980;44.898;8.602;2023-03-01T18:51:09;6.65;85.06
77052;SHT30;65980;44.898;8.602;2023-03-01T18:54:13;6.82;84.55
77052;SHT30;65980;44.898;8.602;2023-03-01T18:57:18;6.80;83.86
77052;SHT30;65980;44.898;8.602;2023-03-01T19:00:22;6.85;83.68
77052;SHT30;65980;44.898;8.602;2023-03-01T19:03:26;6.20;86.07
77052;SHT30;65980;44.898;8.602;2023-03-01T19:06:33;6.38;85.71
77052;SHT30;65980;44.898;8.602;2023-03-01T19:09:38;6.59;84.71
77052;SHT30;65980;44.898;8.602;2023-03-01T19:12:42;6.37;85.08
77052;SHT30;65980;44.898;8.602;2023-03-01T19:15:48;6.49;84.45
77052;SHT30;65980;44.898;8.602;2023-03-01T19:18:53;6.30;84.72
77052;SHT30;65980;44.898;8.602;2023-03-01T19:21:57;6.27;84.90
77052;SHT30;65980;44.898;8.602;2023-03-01T19:25:01;6.35;85.10
77052;SHT30;65980;44.898;8.602;2023-03-01T19:28:05;5.94;86.37
77052;SHT30;65980;44.898;8.602;2023-03-01T19:31:11;5.94;86.34
77052;SHT30;65980;44.898;8.602;2023-03-01T19:34:18;5.80;86.81
77052;SHT30;65980;44.898;8.602;2023-03-01T19:37:21;5.90;85.86
77052;SHT30;65980;44.898;8.602;2023-03-01T19:40:28;5.77;86.70
77052;SHT30;65980;44.898;8.602;2023-03-01T19:43:31;5.86;86.22
77052;SHT30;65980;44.898;8.602;2023-03-01T19:46:36;5.75;87.10
77052;SHT30;65980;44.898;8.602;2023-03-01T19:49:39;5.80;87.16
77052;SHT30;65980;44.898;8.602;2023-03-01T19:52:45;5.70;87.54
77052;SHT30;65980;44.898;8.602;2023-03-01T19:55:48;5.75;87.08
77052;SHT30;65980;44.898;8.602;2023-03-01T19:58:55;5.56;87.00
77052;SHT30;65980;44.898;8.602;2023-03-01T20:02:02;5.70;86.53
77052;SHT30;65980;44.898;8.602;2023-03-01T20:05:07;5.65;87.43
77052;SHT30;65980;44.898;8.602;2023-03-01T20:08:11;5.58;87.12
77052;SHT30;65980;44.898;8.602;2023-03-01T20:11:15;5.56;86.81
77052;SHT30;65980;44.898;8.602;2023-03-01T20:14:19;5.48;87.36
77052;SHT30;65980;44.898;8.602;2023-03-01T20:17:23;5.52;87.38
77052;SHT30;65980;44.898;8.602;2023-03-01T20:20:30;5.52;86.05
77052;SHT30;65980;44.898;8.602;2023-03-01T20:23:34;5.47;85.96
77052;SHT30;65980;44.898;8.602;2023-03-01T20:26:39;5.51;85.63
77052;SHT30;65980;44.898;8.602;2023-03-01T20:29:44;5.28;87.11
77052;SHT30;65980;44.898;8.602;2023-03-01T20:32:49;5.30;87.22
77052;SHT30;65980;44.898;8.602;2023-03-01T20:35:53;5.47;86.92
77052;SHT30;65980;44.898;8.602;2023-03-01T20:38:57;5.40;85.95
77052;SHT30;65980;44.898;8.602;2023-03-01T20:42:01;5.28;85.57
77052;SHT30;65980;44.898;8.602;2023-03-01T20:45:06;5.14;85.82
77052;SHT30;65980;44.898;8.602;2023-03-01T20:48:09;5.12;85.64
77052;SHT30;65980;44.898;8.602;2023-03-01T20:51:13;5.03;86.06
77052;SHT30;65980;44.898;8.602;2023-03-01T20:54:17;5.16;84.69
77052;SHT30;65980;44.898;8.602;2023-03-01T20:57:21;5.21;85.20
77052;SHT30;65980;44.898;8.602;2023-03-01T21:00:25;5.10;84.53
77052;SHT30;65980;44.898;8.602;2023-03-01T21:03:29;5.00;84.82
77052;SHT30;65980;44.898;8.602;2023-03-01T21:06:33;4.99;85.42
77052;SHT30;65980;44.898;8.602;2023-03-01T21:09:37;5.04;85.69
77052;SHT30;65980;44.898;8.602;2023-03-01T21:12:43;4.96;85.86
77052;SHT30;65980;44.898;8.602;2023-03-01T21:15:51;4.99;85.72
77052;SHT30;65980;44.898;8.602;2023-03-01T21:18:57;4.89;85.53
77052;SHT30;65980;44.898;8.602;2023-03-01T21:22:02;4.90;85.50
77052;SHT30;65980;44.898;8.602;2023-03-01T21:25:06;4.90;85.45
77052;SHT30;65980;44.898;8.602;2023-03-01T21:28:10;4.82;86.14
77052;SHT30;65980;44.898;8.602;2023-03-01T21:31:16;4.86;85.79